createdAt,value
2022-12-26T06:50:04.483Z,12.10
2022-12-26T06:53:06.451Z,12.20
2022-12-26T06:56:10.679Z,12.40
2022-12-26T06:59:12.727Z,12.60
2022-12-26T07:02:14.421Z,12.50
2022-12-26T07:05:16.220Z,12.40
2022-12-26T07:08:17.893Z,12.10
2022-12-26T07:11:23.142Z,11.90
2022-12-26T07:14:24.737Z,11.80
2022-12-26T07:17:26.390Z,11.80
2022-12-26T07:20:28.071Z,11.80
2022-12-26T07:23:30.874Z,11.70
2022-12-26T07:26:32.498Z,11.70
2022-12-26T07:29:34.170Z,11.70
2022-12-26T07:32:35.844Z,11.60
2022-12-26T07:35:37.643Z,11.50
2022-12-26T07:38:39.278Z,11.60
2022-12-26T07:42:00.983Z,11.60
2022-12-26T07:45:02.873Z,11.60
2022-12-26T07:48:04.826Z,11.50
2022-12-26T07:51:06.531Z,11.50
2022-12-26T07:54:11.324Z,11.60
2022-12-26T07:57:46.790Z,11.60
2022-12-26T08:00:35.114Z,11.70
2022-12-26T08:03:36.847Z,11.80
2022-12-26T08:06:38.853Z,11.80
2022-12-26T08:09:42.855Z,11.70
2022-12-26T08:12:44.992Z,11.70
2022-12-26T08:15:46.649Z,11.70
2022-12-26T08:18:48.424Z,11.80
2022-12-26T08:21:50.139Z,11.90
2022-12-26T08:24:52.133Z,11.90
2022-12-26T08:27:53.787Z,11.90
2022-12-26T08:30:55.644Z,11.80
2022-12-26T08:33:57.781Z,11.70
2022-12-26T08:36:59.649Z,11.50
2022-12-26T08:40:01.311Z,11.50
2022-12-26T08:43:21.943Z,11.40
2022-12-26T08:46:25.616Z,11.30
2022-12-26T08:49:27.332Z,11.20
2022-12-26T08:52:28.990Z,11.00
2022-12-26T08:55:30.641Z,11.00
2022-12-26T08:58:33.008Z,10.90
2022-12-26T09:01:35.031Z,10.90
2022-12-26T09:04:37.312Z,10.90
2022-12-26T09:07:39.130Z,10.90
2022-12-26T09:10:40.864Z,10.90
2022-12-26T09:13:44.272Z,10.80
2022-12-26T09:16:50.587Z,10.80
2022-12-26T09:19:52.942Z,10.80
2022-12-26T09:22:55.453Z,10.80
2022-12-26T09:26:05.900Z,10.80
2022-12-26T09:29:07.958Z,10.90
2022-12-26T09:32:09.633Z,10.80
2022-12-26T09:35:11.304Z,10.80
2022-12-26T09:38:13.585Z,10.70
2022-12-26T09:41:41.466Z,10.70
2022-12-26T09:44:57.059Z,10.50
2022-12-26T09:48:06.667Z,10.50
2022-12-26T09:51:10.093Z,10.50
2022-12-26T09:54:21.416Z,10.40
2022-12-26T09:57:43.988Z,10.40
2022-12-26T10:00:53.567Z,10.30
2022-12-26T10:03:57.643Z,10.20
2022-12-26T10:07:26.598Z,10.20
2022-12-26T10:10:48.070Z,10.20
2022-12-26T10:13:55.862Z,10.40
2022-12-26T10:17:11.532Z,10.50
2022-12-26T10:20:40.002Z,10.50
2022-12-26T10:23:45.729Z,10.50
2022-12-26T10:26:51.403Z,10.50
2022-12-26T10:29:58.348Z,10.40
2022-12-26T10:33:09.759Z,10.30
2022-12-26T10:36:18.571Z,10.20
2022-12-26T10:39:26.789Z,10.20
2022-12-26T10:42:40.142Z,10.10
2022-12-26T10:46:06.041Z,10.20
2022-12-26T10:49:10.702Z,10.20
2022-12-26T10:52:13.551Z,10.00
2022-12-26T10:55:29.471Z,10.20
2022-12-26T10:58:36.494Z,10.20
2022-12-26T11:01:41.101Z,10.20
2022-12-26T11:05:33.170Z,10.20
2022-12-26T11:08:26.654Z,10.40
2022-12-26T11:11:45.844Z,10.50
2022-12-26T11:14:48.360Z,10.60
2022-12-26T11:17:52.541Z,10.60
2022-12-26T11:20:54.294Z,10.60
2022-12-26T11:24:19.426Z,10.60
2022-12-26T11:27:24.399Z,10.70
2022-12-26T11:30:31.056Z,10.70
2022-12-26T11:33:42.192Z,10.90
2022-12-26T11:36:48.429Z,10.80
2022-12-26T11:39:52.108Z,10.90
2022-12-26T11:42:58.278Z,10.90
2022-12-26T11:46:00.106Z,10.80
2022-12-26T11:49:03.102Z,10.70
2022-12-26T11:52:44.720Z,10.70
2022-12-26T11:55:59.476Z,10.70
2022-12-26T11:59:20.936Z,10.80
2022-12-26T12:02:32.137Z,11.00
2022-12-26T12:06:06.082Z,11.10
2022-12-26T12:09:47.609Z,11.10
2022-12-26T12:13:29.137Z,11.40
2022-12-26T12:16:44.223Z,11.30
2022-12-26T12:20:08.663Z,11.10
2022-12-26T12:23:38.428Z,11.10
2022-12-26T12:26:58.720Z,11.10
2022-12-26T12:30:31.908Z,11.00
2022-12-26T12:33:59.991Z,11.00
2022-12-26T12:37:34.447Z,10.80
2022-12-26T12:41:06.093Z,10.90
2022-12-26T12:44:33.504Z,11.00
2022-12-26T12:47:54.455Z,11.10
2022-12-26T12:51:24.349Z,11.10
2022-12-26T12:54:47.269Z,11.30
2022-12-26T12:58:24.157Z,11.10
2022-12-26T13:01:32.082Z,11.00
2022-12-26T13:04:41.351Z,11.00
2022-12-26T13:07:48.173Z,11.20
2022-12-26T13:11:02.951Z,11.30
2022-12-26T13:14:17.903Z,11.30
2022-12-26T13:17:27.003Z,11.40
2022-12-26T13:20:42.562Z,11.50
2022-12-26T13:24:06.974Z,11.30
2022-12-26T13:27:26.312Z,11.10
2022-12-26T13:30:28.060Z,11.20
2022-12-26T13:33:30.868Z,11.20
2022-12-26T13:36:40.187Z,11.30
2022-12-26T13:39:42.260Z,11.20
2022-12-26T13:43:10.936Z,11.20
2022-12-26T13:46:36.052Z,11.30
2022-12-26T13:49:40.007Z,11.20
2022-12-26T13:52:42.345Z,11.20
2022-12-26T13:55:44.436Z,11.30
2022-12-26T13:59:08.224Z,11.40
2022-12-26T14:03:16.506Z,11.30
2022-12-26T14:06:38.053Z,11.20
2022-12-26T14:10:05.431Z,11.30
2022-12-26T14:13:46.976Z,11.20
2022-12-26T14:17:02.359Z,11.20
2022-12-26T14:20:39.424Z,11.30
2022-12-26T14:24:07.917Z,11.40
2022-12-26T14:27:46.961Z,11.30
2022-12-26T14:31:28.480Z,11.40
2022-12-26T14:34:51.663Z,11.40
2022-12-26T14:38:13.405Z,11.40
2022-12-26T14:41:37.467Z,11.50
2022-12-26T14:44:39.223Z,11.60
2022-12-26T14:47:47.517Z,11.50
2022-12-26T14:50:52.742Z,11.60
2022-12-26T14:54:14.331Z,11.50
2022-12-26T14:57:43.161Z,11.30
2022-12-26T15:00:45.363Z,11.30
2022-12-26T15:04:10.293Z,11.30
2022-12-26T15:07:36.184Z,11.20
2022-12-26T15:10:48.516Z,11.40
2022-12-26T15:14:25.202Z,11.40
2022-12-26T15:18:02.690Z,11.40
2022-12-26T15:21:33.720Z,11.30
2022-12-26T15:28:31.908Z,11.30
2022-12-26T15:32:03.488Z,11.30
2022-12-26T15:35:45.011Z,11.20
2022-12-26T15:38:57.968Z,11.10
2022-12-26T15:42:34.538Z,11.00
2022-12-26T15:46:08.273Z,10.90
2022-12-26T15:49:44.141Z,10.50
2022-12-26T15:53:06.856Z,10.50
2022-12-26T15:56:43.073Z,10.50
2022-12-26T16:00:04.601Z,10.40
2022-12-26T16:03:30.521Z,10.30
2022-12-26T16:07:04.874Z,10.30
2022-12-26T16:10:29.386Z,10.40
2022-12-26T16:13:32.933Z,10.40
2022-12-26T16:16:37.616Z,10.40
2022-12-26T16:19:43.907Z,10.30
2022-12-26T16:22:47.255Z,10.30
2022-12-26T16:25:50.916Z,10.30
2022-12-26T16:28:53.563Z,10.30
2022-12-26T16:32:03.552Z,10.30
2022-12-26T16:35:07.797Z,10.20
2022-12-26T16:38:21.967Z,10.10
2022-12-26T16:41:32.745Z,10.10
2022-12-26T16:44:36.255Z,10.10
2022-12-26T16:47:38.120Z,10.20
2022-12-26T16:51:06.121Z,10.10
2022-12-26T16:54:23.242Z,10.00
2022-12-26T16:57:24.961Z,10.00
